University Park, Illinois
Current Conditions -  °F | °C
As of 3:55 AM on Saturday 29 Nov 2014 (Local Time) from KIGQ Reporting Station
Clear Clear  
Wind Chill: 24°   Ceiling: Unl
Heat Index: 33°   Visibility: 10mi
Dew Point: 27°   Wind: 12mph
Humidity: 79%   Direction: 170°S
Pressure: 29.81"   Gusts: NA
Location:  41.4594°N, 87.6908°W
Report Text: KIGQ 290955Z AUTO 17010KT 10SM CLR 01/M03 A2981 RMK AO2 T00061026
Loading
Personal Weather Stations






























Interactive Weather Map New forecast layout! Learn more

10-Day Weather Forecast

Advertisements
Track Severe Weather on mobile